createdAt,value
2018-07-16T00:01:37.941Z,48.55
2018-07-16T00:06:41.845Z,50.36
2018-07-16T00:11:45.714Z,49.93
2018-07-16T00:16:49.526Z,49.60
2018-07-16T00:21:53.395Z,51.42
2018-07-16T00:26:57.596Z,51.00
2018-07-16T00:32:01.422Z,50.98
2018-07-16T00:37:05.633Z,51.43
2018-07-16T00:42:09.486Z,52.17
2018-07-16T00:47:13.269Z,51.04
2018-07-16T00:52:17.084Z,51.94
2018-07-16T00:57:21.792Z,52.53
2018-07-16T01:02:25.478Z,52.15
2018-07-16T01:07:29.020Z,52.75
2018-07-16T01:12:33.128Z,53.04
2018-07-16T01:17:36.815Z,53.11
2018-07-16T01:22:40.503Z,53.00
2018-07-16T01:27:44.557Z,53.21
2018-07-16T01:32:48.077Z,53.01
2018-07-16T01:37:51.662Z,53.34
2018-07-16T01:42:55.306Z,54.03
2018-07-16T01:47:58.920Z,53.99
2018-07-16T01:53:02.542Z,54.19
2018-07-16T01:58:06.563Z,54.17
2018-07-16T02:03:10.395Z,54.14
2018-07-16T02:08:14.470Z,53.70
2018-07-16T02:13:18.110Z,54.91
2018-07-16T02:18:21.627Z,54.80
2018-07-16T02:23:25.150Z,54.72
2018-07-16T02:28:28.793Z,54.82
2018-07-16T02:33:32.616Z,55.58
2018-07-16T02:38:36.495Z,54.89
2018-07-16T02:43:40.485Z,55.04
2018-07-16T02:48:44.058Z,54.30
2018-07-16T02:53:47.614Z,56.02
2018-07-16T02:58:51.214Z,56.48
2018-07-16T03:03:54.859Z,55.46
2018-07-16T03:08:58.651Z,55.71
2018-07-16T03:14:02.142Z,56.14
2018-07-16T03:19:05.926Z,55.55
2018-07-16T03:24:09.473Z,56.95
2018-07-16T03:29:12.962Z,56.58
2018-07-16T03:34:16.990Z,57.08
2018-07-16T03:39:21.170Z,56.62
2018-07-16T03:44:24.670Z,56.41
2018-07-16T03:49:28.253Z,56.09
2018-07-16T03:54:31.960Z,57.28
2018-07-16T03:59:35.459Z,57.30
2018-07-16T04:04:39.026Z,57.31
2018-07-16T04:09:42.638Z,57.08
2018-07-16T04:14:46.205Z,56.64
2018-07-16T04:19:49.765Z,56.58
2018-07-16T04:24:53.786Z,57.66
2018-07-16T04:29:57.777Z,56.65
2018-07-16T04:35:02.820Z,57.46
2018-07-16T04:40:08.158Z,57.42
2018-07-16T04:45:11.994Z,57.57
2018-07-16T04:50:15.476Z,57.82
2018-07-16T04:55:19.054Z,57.66
2018-07-16T05:00:23.263Z,57.72
2018-07-16T05:05:26.970Z,57.43
2018-07-16T05:10:30.578Z,57.40
2018-07-16T05:15:34.117Z,56.39
2018-07-16T05:20:37.593Z,56.29
2018-07-16T05:25:41.226Z,56.08
2018-07-16T05:30:45.100Z,55.98
2018-07-16T05:35:48.622Z,55.17
2018-07-16T05:40:52.181Z,55.31
2018-07-16T05:45:55.678Z,55.02
2018-07-16T05:50:59.230Z,54.55
2018-07-16T05:56:02.854Z,54.05
2018-07-16T06:01:06.763Z,54.33
2018-07-16T06:06:10.759Z,54.16
2018-07-16T06:11:15.362Z,53.84
2018-07-16T06:16:19.115Z,53.99
2018-07-16T06:21:22.837Z,53.41
2018-07-16T06:26:27.011Z,53.96
2018-07-16T06:31:30.635Z,53.37
2018-07-16T06:36:34.476Z,53.15
2018-07-16T06:41:38.066Z,52.72
2018-07-16T06:46:41.615Z,52.06
2018-07-16T06:51:45.827Z,52.04
2018-07-16T06:56:49.512Z,51.10
2018-07-16T07:01:53.016Z,50.76
2018-07-16T07:06:56.765Z,50.84
2018-07-16T07:12:00.286Z,49.13
2018-07-16T07:17:03.793Z,49.15
2018-07-16T07:22:08.301Z,49.19
2018-07-16T07:27:11.902Z,48.21
2018-07-16T07:32:15.842Z,48.28
2018-07-16T07:37:19.950Z,47.92
2018-07-16T07:42:24.050Z,48.20
2018-07-16T07:47:28.459Z,47.39
2018-07-16T07:52:32.084Z,47.21
2018-07-16T07:57:35.942Z,47.04
2018-07-16T08:02:39.531Z,46.18
2018-07-16T08:07:43.643Z,45.52
2018-07-16T08:12:47.177Z,45.33
2018-07-16T08:17:50.878Z,45.26
2018-07-16T08:22:54.377Z,44.74
2018-07-16T08:27:58.117Z,44.11
2018-07-16T08:33:01.753Z,44.43
2018-07-16T08:38:05.864Z,43.22
2018-07-16T08:43:10.306Z,42.85
2018-07-16T08:48:13.802Z,42.16
2018-07-16T08:53:17.581Z,41.00
2018-07-16T08:58:21.769Z,41.50
2018-07-16T09:03:25.270Z,41.10
2018-07-16T09:08:28.871Z,40.15
2018-07-16T09:13:32.691Z,39.92
2018-07-16T09:18:36.169Z,40.59
2018-07-16T09:23:40.095Z,40.39
2018-07-16T09:28:43.697Z,39.63
2018-07-16T09:33:48.158Z,39.20
2018-07-16T09:38:52.365Z,39.50
2018-07-16T09:43:56.417Z,38.70
2018-07-16T09:49:00.282Z,38.25
2018-07-16T09:54:03.925Z,38.76
2018-07-16T09:59:08.474Z,38.33
2018-07-16T10:04:13.182Z,38.87
2018-07-16T10:09:16.859Z,38.31
2018-07-16T10:14:21.193Z,38.47
2018-07-16T10:19:25.175Z,38.20
2018-07-16T10:24:29.161Z,37.95
2018-07-16T10:29:34.408Z,38.27
2018-07-16T10:34:38.589Z,37.69
2018-07-16T10:39:42.576Z,36.65
2018-07-16T10:44:47.063Z,36.35
2018-07-16T10:49:51.415Z,36.68
2018-07-16T10:54:55.778Z,36.90
2018-07-16T11:00:05.493Z,36.54
2018-07-16T11:05:09.528Z,36.78
2018-07-16T11:10:13.897Z,36.77
2018-07-16T11:15:18.103Z,36.84
2018-07-16T11:20:21.977Z,36.57
2018-07-16T11:25:25.476Z,36.89
2018-07-16T11:30:28.993Z,36.13
2018-07-16T11:35:33.288Z,36.09
2018-07-16T11:40:41.527Z,36.23
2018-07-16T11:45:46.486Z,35.99
2018-07-16T11:50:51.704Z,35.21
2018-07-16T11:55:55.672Z,35.35
2018-07-16T12:00:59.910Z,35.57
2018-07-16T12:06:08.046Z,35.22
2018-07-16T12:11:12.362Z,34.41
2018-07-16T12:16:16.495Z,35.21
2018-07-16T12:21:20.471Z,35.77
2018-07-16T12:26:24.624Z,35.35
2018-07-16T12:31:29.594Z,33.52
2018-07-16T12:36:33.577Z,33.03
2018-07-16T12:41:38.000Z,32.46
2018-07-16T12:46:43.074Z,33.65
2018-07-16T12:51:47.200Z,34.05
2018-07-16T12:56:51.523Z,33.88
2018-07-16T13:01:55.946Z,33.43
2018-07-16T13:07:00.618Z,33.00
2018-07-16T13:12:05.162Z,32.80
2018-07-16T13:17:09.307Z,31.69
2018-07-16T13:22:13.302Z,32.24
2018-07-16T13:27:16.920Z,32.62
2018-07-16T13:32:20.420Z,31.16
2018-07-16T13:37:24.231Z,31.44
2018-07-16T13:42:27.786Z,30.18
2018-07-16T13:47:31.352Z,30.51
2018-07-16T13:52:35.151Z,30.57
2018-07-16T13:57:39.161Z,30.15
2018-07-16T14:02:42.997Z,30.72
2018-07-16T14:07:47.328Z,30.44
2018-07-16T14:12:51.893Z,29.79
2018-07-16T14:17:55.475Z,29.64
2018-07-16T14:22:59.228Z,28.58
2018-07-16T14:28:03.375Z,28.17
2018-07-16T14:33:08.154Z,27.27
2018-07-16T14:38:12.847Z,27.70
2018-07-16T14:43:18.174Z,27.42
2018-07-16T14:48:23.396Z,26.56
2018-07-16T14:53:28.343Z,26.66
2018-07-16T14:58:33.276Z,26.94
2018-07-16T15:03:37.950Z,26.13
2018-07-16T15:08:42.677Z,25.92
2018-07-16T15:13:47.391Z,25.80
2018-07-16T15:18:51.362Z,25.39
2018-07-16T15:23:55.507Z,25.57
2018-07-16T15:29:00.170Z,26.31
2018-07-16T15:34:04.190Z,26.13
2018-07-16T15:39:08.998Z,27.39
2018-07-16T15:44:12.640Z,27.59
2018-07-16T15:49:17.631Z,27.55
2018-07-16T15:54:21.686Z,28.86
2018-07-16T15:59:26.572Z,29.60
2018-07-16T16:04:30.241Z,28.99
2018-07-16T16:09:34.953Z,26.80
2018-07-16T16:14:38.957Z,24.69
2018-07-16T16:19:42.798Z,23.66
2018-07-16T16:24:47.804Z,22.44
2018-07-16T16:29:51.786Z,21.74
2018-07-16T16:34:56.053Z,21.87
2018-07-16T16:45:10.348Z,22.39
2018-07-16T16:50:15.014Z,23.09
2018-07-16T16:55:20.833Z,24.69
2018-07-16T17:00:24.997Z,25.09
2018-07-16T17:05:29.370Z,25.56
2018-07-16T17:10:33.893Z,26.06
2018-07-16T17:15:38.431Z,26.10
2018-07-16T17:20:42.521Z,26.23
2018-07-16T17:25:47.055Z,25.83
2018-07-16T17:30:51.558Z,26.39
2018-07-16T17:35:56.496Z,26.41
2018-07-16T17:41:00.253Z,27.21
2018-07-16T17:46:04.730Z,25.59
2018-07-16T17:51:08.351Z,24.94
2018-07-16T17:56:12.912Z,24.28
2018-07-16T18:01:18.260Z,23.57
2018-07-16T18:06:22.409Z,24.23
2018-07-16T18:11:27.172Z,24.54
2018-07-16T18:16:32.487Z,24.78
2018-07-16T18:21:37.209Z,25.05
2018-07-16T18:26:41.370Z,25.59
2018-07-16T18:31:46.315Z,26.27
2018-07-16T18:36:50.908Z,27.22
2018-07-16T18:41:55.862Z,27.84
2018-07-16T18:47:01.175Z,29.56
2018-07-16T18:52:05.920Z,29.64
2018-07-16T18:57:09.911Z,30.51
2018-07-16T19:02:15.602Z,30.74
2018-07-16T19:07:22.755Z,31.66
2018-07-16T19:12:27.184Z,32.20
2018-07-16T19:17:31.903Z,33.79
2018-07-16T19:22:36.534Z,34.41
2018-07-16T19:27:41.610Z,35.67
2018-07-16T19:32:46.011Z,35.79
2018-07-16T19:37:50.638Z,37.19
2018-07-16T19:42:55.695Z,36.94
2018-07-16T19:48:00.351Z,37.69
2018-07-16T19:53:04.887Z,38.70
2018-07-16T19:58:08.691Z,39.62
2018-07-16T20:03:12.269Z,39.21
2018-07-16T20:08:16.065Z,39.89
2018-07-16T20:13:19.885Z,40.66
2018-07-16T20:18:23.526Z,40.73
2018-07-16T20:23:27.002Z,40.42
2018-07-16T20:28:30.571Z,41.85
2018-07-16T20:33:34.212Z,41.58
2018-07-16T20:38:39.236Z,42.29
2018-07-16T20:43:42.927Z,42.88
2018-07-16T20:48:46.434Z,42.84
2018-07-16T20:53:50.794Z,43.87
2018-07-16T20:58:54.448Z,44.14
2018-07-16T21:03:58.117Z,44.49
2018-07-16T21:09:02.282Z,44.46
2018-07-16T21:14:05.783Z,44.56
2018-07-16T21:19:09.701Z,44.24
2018-07-16T21:24:13.734Z,45.13
2018-07-16T21:29:18.255Z,46.76
2018-07-16T21:34:22.031Z,45.74
2018-07-16T21:39:25.885Z,45.97
2018-07-16T21:44:29.550Z,44.56
2018-07-16T21:49:33.080Z,45.46
2018-07-16T21:54:36.717Z,46.21
2018-07-16T21:59:40.362Z,45.78
2018-07-16T22:04:44.369Z,46.60
2018-07-16T22:09:48.003Z,47.09
2018-07-16T22:14:51.554Z,46.78
2018-07-16T22:19:55.040Z,47.70
2018-07-16T22:24:59.021Z,47.76
2018-07-16T22:30:04.106Z,47.41
2018-07-16T22:35:07.870Z,47.89
2018-07-16T22:40:11.407Z,48.35
2018-07-16T22:45:15.114Z,48.53
2018-07-16T22:50:19.573Z,48.02
2018-07-16T22:55:23.133Z,49.42
2018-07-16T23:00:26.703Z,49.26
2018-07-16T23:05:30.222Z,48.51
2018-07-16T23:10:33.744Z,49.06
2018-07-16T23:15:37.375Z,49.40
2018-07-16T23:20:40.947Z,49.59
2018-07-16T23:25:44.908Z,50.13
2018-07-16T23:30:48.639Z,49.76
2018-07-16T23:35:52.726Z,49.29
2018-07-16T23:40:56.478Z,50.74
2018-07-16T23:46:00.019Z,50.12
2018-07-16T23:51:03.850Z,49.96
2018-07-16T23:56:07.527Z,50.79
